Current Weather

Benjamin Taisacan Manglona Intl

Rota Island, Northern Mariana Islands (PGRO)

Report from: Tuesday, March 5, 2024 10:50 AM ChST
Current time: Tuesday, March 5, 2024 11:17 AM ChST

Nearby weather – Weather history – Daily summaries
Weather forecast

Temperature28.0°C (82.4°F)
Heat index30.8°C (87.5°F)
Dew point22.0°C (71.6°F)
Winds 14 kts (7.2 m/s, 16.1 mph) East-Northeast (70°)
Visibility7 mi. (11.3 km)
Clouds Ceiling: Broken clouds 1,400 ft. (427 m)
Altimeter29.94 in.Hg (1014 mB)
Relative humidity70 %
Density altitude1,831 ft. (558 m)
Flight conditions Marginal Visual Meteorological Conditions
Raw dataPGRO 050050Z 07014KT 7SM BKN014 28/22 A2994
An error has occurred. This application may no longer respond until reloaded. Reload 🗙